Terminal Aerodrome Forecast
Issued by NWS

Home | Current Version | Previous Version | Text Only | Print | Product List | Glossary On
Versions: 1 2 3 4 5 6 7 8 9 10 11 12 13 14 15 16 17
000
FTUS42 KJAX 301819 AAA
TAFVQQ
TAF AMD
KVQQ 301819Z 3018/3118 28010KT P6SM VCTS SCT050CB SCT250
     FM302300 VRB04KT P6SM FEW050 SCT250
     FM311600 28006KT P6SM SCT050 SCT250=

USA.gov is the U.S. government's official web portal to all federal, state and local government web resources and services.